Time;durP1;ratioP1;P1;durP2;ratioP2;P2;SDS_P1;SDS_P2;PMS_P1;PMS_P2;Temp;Humidity;BMP_temperature;BMP_pressure;BME280_temperature;BME280_humidity;BME280_pressure;Samples;Min_cycle;Max_cycle;Signal;HPM_P1;HPM_P2
2021/08/01 00:00:09;;;;;;;12.77;4.65;;;;;;;14.94;100.00;100568.16;4967222;28;20488;-72
2021/08/01 00:02:39;;;;;;;7.07;4.28;;;;;;;14.96;100.00;100566.16;4965346;28;20168;-73
2021/08/01 00:05:05;;;;;;;15.80;4.65;;;;;;;14.96;100.00;100564.31;4980946;28;20495;-73
2021/08/01 00:07:34;;;;;;;8.07;4.53;;;;;;;14.87;100.00;100562.75;4973455;28;20046;-71
2021/08/01 00:10:00;;;;;;;8.38;4.80;;;;;;;14.93;100.00;100559.38;4965265;28;20038;-73
2021/08/01 00:12:26;;;;;;;9.18;4.90;;;;;;;14.90;100.00;100559.75;4944284;28;20046;-72
2021/08/01 00:14:53;;;;;;;9.23;5.20;;;;;;;14.90;100.00;100554.47;4981079;28;20065;-73
2021/08/01 00:17:18;;;;;;;9.38;4.70;;;;;;;14.90;100.00;100553.63;4963764;28;20081;-72
2021/08/01 00:19:44;;;;;;;12.57;5.43;;;;;;;14.94;100.00;100560.22;4962625;28;20407;-73
2021/08/01 00:22:10;;;;;;;7.47;5.45;;;;;;;14.84;100.00;100551.72;4962392;28;20039;-72
2021/08/01 00:24:35;;;;;;;13.50;5.93;;;;;;;14.83;100.00;100561.47;4967406;28;20035;-72
2021/08/01 00:27:01;;;;;;;12.43;5.78;;;;;;;14.84;100.00;100563.09;4954494;28;20037;-72
2021/08/01 00:29:27;;;;;;;9.10;5.53;;;;;;;14.85;100.00;100567.38;4966353;28;20077;-71
2021/08/01 00:31:53;;;;;;;6.75;5.57;;;;;;;14.77;100.00;100560.34;4946163;28;20041;-70
2021/08/01 00:34:18;;;;;;;12.68;5.60;;;;;;;14.86;100.00;100565.56;4929777;29;20121;-71
2021/08/01 00:36:44;;;;;;;8.65;5.78;;;;;;;14.85;100.00;100556.81;4948802;28;20038;-73
2021/08/01 00:39:11;;;;;;;13.32;6.30;;;;;;;14.83;100.00;100573.84;4968313;28;20407;-74
2021/08/01 00:41:37;;;;;;;14.65;6.20;;;;;;;14.86;100.00;100576.13;4948512;28;20051;-71
2021/08/01 00:44:03;;;;;;;9.80;5.95;;;;;;;14.82;100.00;100575.66;4969773;28;20172;-72
2021/08/01 00:46:29;;;;;;;16.23;5.95;;;;;;;14.83;100.00;100572.03;4965914;28;20097;-72
2021/08/01 00:48:55;;;;;;;11.18;5.32;;;;;;;14.77;100.00;100572.75;4974057;28;20027;-73
2021/08/01 00:51:21;;;;;;;5.68;4.57;;;;;;;14.74;100.00;100565.16;4950505;28;20130;-72
2021/08/01 00:53:47;;;;;;;10.93;5.43;;;;;;;14.73;100.00;100567.00;4948000;28;20062;-71
2021/08/01 00:56:16;;;;;;;9.27;5.70;;;;;;;14.69;100.00;100567.53;4965211;28;20708;-72
2021/08/01 00:58:42;;;;;;;12.38;5.03;;;;;;;14.75;100.00;100557.09;4966668;28;20113;-72
2021/08/01 01:01:15;;;;;;;6.22;4.75;;;;;;;14.72;100.00;100562.72;4967980;28;20053;-71
2021/08/01 01:04:07;;;;;;;9.98;5.00;;;;;;;14.74;100.00;100559.91;4963702;28;20105;-72
2021/08/01 01:06:40;;;;;;;10.82;5.10;;;;;;;14.70;100.00;100555.97;4948987;28;20116;-73
2021/08/01 01:09:12;;;;;;;;;;;;;;;14.64;100.00;100546.94;4951653;28;20039;-72
2021/08/01 01:12:14;;;;;;;10.60;4.95;;;;;;;14.65;100.00;100538.00;4953694;28;20774;-73
2021/08/01 01:14:47;;;;;;;14.48;5.03;;;;;;;14.69;100.00;100539.31;4971790;28;20377;-72
2021/08/01 01:17:15;;;;;;;10.38;5.28;;;;;;;14.70;100.00;100545.41;4972835;28;20177;-72
2021/08/01 01:19:59;;;;;;;10.55;5.35;;;;;;;14.67;100.00;100548.41;4956173;28;20090;-72
2021/08/01 01:22:46;;;;;;;15.88;5.30;;;;;;;14.71;100.00;100544.41;4944734;28;20420;-72
2021/08/01 01:25:58;;;;;;;10.85;5.43;;;;;;;14.70;100.00;100540.13;4961510;28;20039;-72
2021/08/01 01:28:31;;;;;;;13.60;5.03;;;;;;;14.71;100.00;100547.03;4966141;28;20034;-73
2021/08/01 01:31:20;;;;;;;10.15;5.05;;;;;;;14.68;100.00;100537.66;4965371;28;20065;-73
2021/08/01 01:34:12;;;;;;;9.07;5.47;;;;;;;14.67;100.00;100537.84;4954552;28;20039;-72
2021/08/01 01:36:42;;;;;;;9.95;5.05;;;;;;;14.61;100.00;100539.38;4975199;28;20573;-72
2021/08/01 01:39:10;;;;;;;8.65;5.38;;;;;;;14.53;100.00;100531.50;4967652;28;20042;-72
2021/08/01 01:42:13;;;;;;;8.43;5.15;;;;;;;14.53;100.00;100542.06;4968620;28;20046;-73
2021/08/01 01:44:44;;;;;;;11.90;5.10;;;;;;;14.58;100.00;100551.13;4948345;28;20037;-74
2021/08/01 01:47:13;;;;;;;9.90;4.78;;;;;;;14.57;100.00;100552.09;4961870;28;20041;-72
2021/08/01 01:49:40;;;;;;;12.05;5.25;;;;;;;14.63;100.00;100555.84;4966586;28;20034;-69
2021/08/01 01:52:12;;;;;;;7.15;5.28;;;;;;;14.65;100.00;100547.75;4947432;28;20069;-76
2021/08/01 01:54:40;;;;;;;12.13;5.50;;;;;;;14.70;100.00;100546.22;4960773;28;20097;-74
2021/08/01 01:57:08;;;;;;;10.80;5.53;;;;;;;14.62;100.00;100542.81;4945452;28;20505;-74
2021/08/01 01:59:38;;;;;;;7.40;4.95;;;;;;;14.59;100.00;100541.38;4966919;28;20926;-74
2021/08/01 02:02:06;;;;;;;8.52;5.40;;;;;;;14.66;100.00;100547.59;4949686;28;20049;-74
2021/08/01 02:04:33;;;;;;;6.35;4.78;;;;;;;14.62;100.00;100551.59;4966148;28;20042;-74
2021/08/01 02:07:20;;;;;;;12.48;5.78;;;;;;;14.61;100.00;100544.66;4947581;28;20053;-72
2021/08/01 02:10:08;;;;;;;8.48;4.88;;;;;;;14.62;100.00;100545.47;4965089;28;20058;-72
2021/08/01 02:12:44;;;;;;;16.85;5.65;;;;;;;14.63;100.00;100537.38;4956877;28;20091;-73
2021/08/01 02:15:19;;;;;;;8.35;5.05;;;;;;;14.66;100.00;100531.75;4946195;28;20093;-73
2021/08/01 02:18:00;;;;;;;12.77;5.93;;;;;;;14.66;100.00;100528.28;4969385;28;20488;-73
2021/08/01 02:20:48;;;;;;;12.45;5.50;;;;;;;14.63;100.00;100533.91;4962014;28;21341;-74
2021/08/01 02:23:22;;;;;;;12.35;5.50;;;;;;;14.63;100.00;100532.09;4956174;28;20034;-73
2021/08/01 02:25:48;;;;;;;10.85;5.68;;;;;;;14.65;100.00;100537.19;4964997;28;20034;-74
2021/08/01 02:28:17;;;;;;;11.27;6.40;;;;;;;14.70;100.00;100525.09;4959251;28;20031;-72
2021/08/01 02:30:44;;;;;;;15.00;5.70;;;;;;;14.66;100.00;100525.66;4965268;28;20514;-72
2021/08/01 02:33:12;;;;;;;8.88;5.57;;;;;;;14.70;100.00;100530.38;4966011;28;20035;-72
2021/08/01 02:35:38;;;;;;;9.23;5.82;;;;;;;14.70;100.00;100532.22;4942966;28;20035;-73
2021/08/01 02:38:04;;;;;;;15.13;6.63;;;;;;;14.59;100.00;100507.06;4974969;28;20491;-74
2021/08/01 02:40:34;;;;;;;12.40;6.40;;;;;;;14.64;100.00;100525.03;4950474;28;20026;-74
2021/08/01 02:43:05;;;;;;;7.82;5.88;;;;;;;14.71;100.00;100523.28;4935425;28;20047;-74
2021/08/01 02:45:33;;;;;;;13.15;6.20;;;;;;;14.68;100.00;100532.38;4981657;28;20022;-74
2021/08/01 02:48:01;;;;;;;12.38;6.25;;;;;;;14.62;100.00;100527.81;4968199;28;20077;-73
2021/08/01 02:50:31;;;;;;;11.85;6.63;;;;;;;14.74;100.00;100523.75;4971558;28;20031;-74
2021/08/01 02:53:00;;;;;;;14.30;6.18;;;;;;;14.74;100.00;100528.22;4968333;28;20077;-74
2021/08/01 02:55:33;;;;;;;18.48;5.90;;;;;;;14.67;100.00;100525.44;4970407;28;20045;-74
2021/08/01 02:58:01;;;;;;;10.68;6.32;;;;;;;14.65;100.00;100535.38;4969634;28;20073;-73
2021/08/01 03:00:30;;;;;;;12.77;6.10;;;;;;;14.61;100.00;100528.81;4952903;28;20063;-73
2021/08/01 03:02:57;;;;;;;7.40;5.80;;;;;;;14.62;100.00;100534.91;4969473;28;20471;-74
2021/08/01 03:05:23;;;;;;;9.25;5.35;;;;;;;14.65;100.00;100548.56;4968619;28;20484;-73
2021/08/01 03:07:49;;;;;;;13.85;6.20;;;;;;;14.68;100.00;100539.50;4970112;28;20138;-75
2021/08/01 03:10:18;;;;;;;11.55;6.43;;;;;;;14.70;100.00;100542.78;4952726;28;20110;-76
2021/08/01 03:12:46;;;;;;;13.50;6.13;;;;;;;14.68;100.00;100537.66;4967864;28;20077;-74
2021/08/01 03:15:15;;;;;;;12.20;5.85;;;;;;;14.68;100.00;100528.94;4942920;28;20065;-73
2021/08/01 03:17:41;;;;;;;10.05;5.60;;;;;;;14.68;100.00;100527.09;4967775;28;20039;-72
2021/08/01 03:20:09;;;;;;;11.48;6.30;;;;;;;14.68;100.00;100529.75;4964344;28;20605;-75
2021/08/01 03:22:46;;;;;;;18.67;6.20;;;;;;;14.68;100.00;100531.56;4958418;28;20050;-71
2021/08/01 03:25:12;;;;;;;22.23;7.00;;;;;;;14.69;100.00;100525.28;4966269;28;20038;-71
2021/08/01 03:27:37;;;;;;;15.52;6.82;;;;;;;14.66;100.00;100533.56;4936913;28;20073;-74
2021/08/01 03:30:03;;;;;;;14.00;6.30;;;;;;;14.60;100.00;100527.19;4968160;28;20781;-75
2021/08/01 03:32:30;;;;;;;10.88;6.40;;;;;;;14.67;100.00;100530.72;4951365;28;20042;-72
2021/08/01 03:34:56;;;;;;;14.40;6.95;;;;;;;14.65;100.00;100531.91;4965232;28;20038;-71
2021/08/01 03:37:26;;;;;;;12.02;7.43;;;;;;;14.66;100.00;100547.59;4945437;28;20649;-72
2021/08/01 03:40:10;;;;;;;15.60;7.03;;;;;;;14.61;100.00;100549.94;4967401;28;20197;-72
2021/08/01 03:42:37;;;;;;;13.40;7.40;;;;;;;14.65;100.00;100559.13;4952527;28;20065;-71
2021/08/01 03:45:02;;;;;;;11.88;7.18;;;;;;;14.65;100.00;100558.31;4973276;28;20772;-72
2021/08/01 03:47:28;;;;;;;13.10;7.38;;;;;;;14.62;100.00;100559.50;4968150;28;20039;-73
2021/08/01 03:49:53;;;;;;;15.30;7.10;;;;;;;14.58;100.00;100558.22;4951582;28;20061;-71
2021/08/01 03:52:19;;;;;;;12.13;6.93;;;;;;;14.70;100.00;100566.53;4963663;28;20138;-72
2021/08/01 03:54:45;;;;;;;11.80;7.93;;;;;;;14.65;100.00;100559.13;4966277;28;20061;-72
2021/08/01 03:57:13;;;;;;;10.32;6.60;;;;;;;14.65;100.00;100566.25;4965316;28;20034;-71
2021/08/01 03:59:38;;;;;;;14.20;7.00;;;;;;;14.61;100.00;100557.84;4948455;28;20054;-72
2021/08/01 04:02:04;;;;;;;11.88;7.57;;;;;;;14.56;100.00;100555.72;4964877;28;20142;-70
2021/08/01 04:04:29;;;;;;;13.25;7.53;;;;;;;14.56;100.00;100546.97;4970815;28;20476;-70
2021/08/01 04:06:55;;;;;;;12.75;7.07;;;;;;;14.51;100.00;100559.88;4970618;28;20155;-73
2021/08/01 04:09:21;;;;;;;13.60;6.47;;;;;;;14.50;100.00;100553.78;4965908;28;20023;-73
2021/08/01 04:11:46;;;;;;;13.48;6.65;;;;;;;14.33;100.00;100565.44;4973251;28;20617;-75
2021/08/01 04:14:12;;;;;;;13.60;6.50;;;;;;;14.47;100.00;100579.72;4972897;28;20026;-72
2021/08/01 04:16:38;;;;;;;11.82;7.13;;;;;;;14.45;100.00;100573.78;4973577;28;20097;-72
2021/08/01 04:19:08;;;;;;;14.15;7.15;;;;;;;14.47;100.00;100572.63;4952963;28;20031;-73
2021/08/01 04:21:34;;;;;;;13.05;6.85;;;;;;;14.39;100.00;100570.00;4965498;28;20043;-72
2021/08/01 04:24:00;;;;;;;11.80;6.88;;;;;;;14.41;100.00;100576.78;4965771;28;20510;-73
2021/08/01 04:26:26;;;;;;;15.68;6.68;;;;;;;14.32;100.00;100577.81;4967079;28;20035;-73
2021/08/01 04:28:52;;;;;;;11.13;7.32;;;;;;;14.31;100.00;100584.09;4964928;28;20077;-72
2021/08/01 04:31:17;;;;;;;13.32;6.97;;;;;;;14.27;100.00;100581.97;4966110;28;20046;-71
2021/08/01 04:33:43;;;;;;;14.20;7.25;;;;;;;14.34;100.00;100593.50;4949429;28;20166;-73
2021/08/01 04:36:08;;;;;;;13.35;7.97;;;;;;;14.52;100.00;100596.66;4975494;28;20488;-72
2021/08/01 04:38:34;;;;;;;13.68;7.78;;;;;;;14.61;100.00;100597.44;4971392;28;20046;-71
2021/08/01 04:40:59;;;;;;;13.05;7.05;;;;;;;14.66;100.00;100589.00;4965851;28;20523;-72
2021/08/01 04:43:25;;;;;;;18.70;6.93;;;;;;;14.71;100.00;100576.91;4966818;28;20094;-72
2021/08/01 04:45:50;;;;;;;17.77;8.05;;;;;;;14.73;100.00;100589.91;4932244;28;20052;-73
2021/08/01 04:48:16;;;;;;;16.17;7.90;;;;;;;14.75;100.00;100587.94;4961479;28;20141;-73
2021/08/01 04:50:41;;;;;;;14.35;7.80;;;;;;;14.88;100.00;100592.59;4959342;28;20065;-72
2021/08/01 04:53:07;;;;;;;14.93;8.10;;;;;;;14.84;100.00;100597.41;4964106;28;20037;-73
2021/08/01 04:55:33;;;;;;;14.52;7.60;;;;;;;14.83;100.00;100592.34;4963927;28;20101;-73
2021/08/01 04:57:58;;;;;;;14.70;7.88;;;;;;;14.79;100.00;100595.31;4968092;28;20042;-73
2021/08/01 05:00:24;;;;;;;23.52;8.77;;;;;;;14.69;100.00;100594.75;4964024;28;20086;-73
2021/08/01 05:02:49;;;;;;;15.20;8.82;;;;;;;14.72;100.00;100602.31;4967722;28;20042;-73
2021/08/01 05:05:15;;;;;;;17.73;8.00;;;;;;;14.76;100.00;100605.41;4956137;28;20026;-73
2021/08/01 05:07:40;;;;;;;22.88;9.30;;;;;;;14.84;100.00;100599.25;4953059;28;20038;-73
2021/08/01 05:10:06;;;;;;;14.18;8.27;;;;;;;14.91;100.00;100618.66;4969150;28;20056;-75
2021/08/01 05:12:32;;;;;;;13.23;8.65;;;;;;;15.01;100.00;100615.78;4966162;28;20085;-73
2021/08/01 05:14:57;;;;;;;21.15;8.77;;;;;;;15.08;100.00;100624.63;4966199;28;20430;-72
2021/08/01 05:17:23;;;;;;;11.52;8.00;;;;;;;15.09;100.00;100618.38;4967729;28;20030;-72
2021/08/01 05:19:50;;;;;;;13.38;7.93;;;;;;;15.13;100.00;100622.28;4966277;28;20055;-73
2021/08/01 05:22:16;;;;;;;13.15;8.50;;;;;;;15.18;100.00;100618.09;4966820;28;20038;-73
2021/08/01 05:24:42;;;;;;;13.82;7.57;;;;;;;15.20;100.00;100615.28;4965216;28;20035;-72
2021/08/01 05:27:08;;;;;;;15.05;7.88;;;;;;;15.25;100.00;100606.81;4965319;28;20037;-72
2021/08/01 05:29:34;;;;;;;18.33;8.50;;;;;;;15.27;100.00;100608.25;4964526;28;20030;-72
2021/08/01 05:31:59;;;;;;;17.33;9.25;;;;;;;15.30;100.00;100615.84;4965517;28;20044;-72
2021/08/01 05:34:25;;;;;;;21.20;9.57;;;;;;;15.29;100.00;100619.47;4966180;28;20034;-73
2021/08/01 05:36:52;;;;;;;18.88;9.65;;;;;;;15.33;100.00;100614.63;4965606;28;20035;-71
2021/08/01 05:39:17;;;;;;;25.75;10.07;;;;;;;15.34;100.00;100614.47;4963126;28;20042;-73
2021/08/01 05:41:43;;;;;;;13.95;9.25;;;;;;;15.40;100.00;100618.22;4951282;28;20066;-73
2021/08/01 05:44:08;;;;;;;18.65;10.13;;;;;;;15.44;100.00;100608.09;4966570;28;20113;-73
2021/08/01 05:46:34;;;;;;;19.15;9.73;;;;;;;15.50;100.00;100618.78;4963642;28;20529;-71
2021/08/01 05:48:59;;;;;;;17.73;9.73;;;;;;;15.50;100.00;100615.28;4968865;28;20046;-71
2021/08/01 05:51:25;;;;;;;14.23;9.05;;;;;;;15.51;100.00;100619.59;4970232;28;20117;-71
2021/08/01 05:53:51;;;;;;;12.35;8.70;;;;;;;15.51;100.00;100617.75;4964508;28;20046;-72
2021/08/01 05:56:16;;;;;;;12.93;8.68;;;;;;;15.55;100.00;100620.84;4965506;28;20085;-73
2021/08/01 05:58:42;;;;;;;13.60;8.50;;;;;;;15.58;100.00;100615.22;4964722;28;20114;-72
2021/08/01 06:01:13;;;;;;;18.63;8.63;;;;;;;15.60;100.00;100618.50;4949665;28;20023;-72
2021/08/01 06:03:40;;;;;;;17.88;8.85;;;;;;;15.60;100.00;100610.56;4963422;28;20522;-71
2021/08/01 06:06:19;;;;;;;12.93;8.57;;;;;;;15.66;100.00;100609.81;4969987;28;20026;-72
2021/08/01 06:08:46;;;;;;;13.50;8.43;;;;;;;15.72;100.00;100609.09;4965670;28;20047;-72
2021/08/01 06:11:13;;;;;;;16.17;8.10;;;;;;;15.79;100.00;100605.75;4966715;28;20088;-72
2021/08/01 06:13:39;;;;;;;11.80;8.10;;;;;;;15.86;100.00;100610.13;4964435;28;20047;-73
2021/08/01 06:16:09;;;;;;;14.43;7.97;;;;;;;15.93;100.00;100613.66;4961641;28;20404;-72
2021/08/01 06:18:36;;;;;;;12.18;8.00;;;;;;;15.95;100.00;100601.09;4959223;28;20058;-73
2021/08/01 06:21:14;;;;;;;12.60;8.23;;;;;;;16.02;100.00;100597.69;4962538;28;20074;-72
2021/08/01 06:23:42;;;;;;;15.90;8.60;;;;;;;16.13;100.00;100605.97;4969608;28;20043;-73
2021/08/01 06:26:08;;;;;;;15.10;8.00;;;;;;;16.19;100.00;100600.94;4968387;28;20035;-73
2021/08/01 06:28:34;;;;;;;18.42;8.63;;;;;;;16.25;100.00;100597.53;4968991;28;20038;-73
2021/08/01 06:31:04;;;;;;;18.80;8.30;;;;;;;16.27;100.00;100609.56;4953074;28;20117;-72
2021/08/01 06:33:30;;;;;;;10.57;7.55;;;;;;;16.37;100.00;100606.63;4956924;28;20102;-73
2021/08/01 06:35:56;;;;;;;10.85;7.00;;;;;;;16.47;100.00;100615.06;4969795;28;20045;-73
2021/08/01 06:38:22;;;;;;;15.00;7.75;;;;;;;16.57;100.00;100612.13;4966738;28;20043;-74
2021/08/01 06:40:48;;;;;;;17.63;7.38;;;;;;;16.49;100.00;100615.69;4981108;28;20031;-73
2021/08/01 06:43:14;;;;;;;9.77;7.28;;;;;;;16.55;100.00;100617.59;4935520;28;20031;-74
2021/08/01 06:45:39;;;;;;;15.90;7.80;;;;;;;16.56;100.00;100618.44;4951545;28;20043;-73
2021/08/01 06:48:06;;;;;;;12.13;7.30;;;;;;;16.40;100.00;100618.66;4967220;28;20069;-75
2021/08/01 06:50:32;;;;;;;14.85;7.75;;;;;;;16.43;100.00;100620.94;4968854;28;20082;-74
2021/08/01 06:52:58;;;;;;;13.20;8.27;;;;;;;16.35;100.00;100622.69;4970154;28;20030;-74
2021/08/01 06:55:23;;;;;;;16.25;8.18;;;;;;;16.25;100.00;100619.53;4969274;28;20049;-74
2021/08/01 06:57:49;;;;;;;11.10;8.20;;;;;;;16.24;100.00;100623.19;4970209;28;20045;-74
2021/08/01 07:00:20;;;;;;;16.52;8.20;;;;;;;16.24;100.00;100619.72;4971618;28;20147;-72
2021/08/01 07:02:54;;;;;;;11.68;8.25;;;;;;;16.30;100.00;100632.22;4973033;28;20813;-73
2021/08/01 07:05:20;;;;;;;12.75;8.68;;;;;;;16.36;100.00;100634.09;4969346;28;20090;-74
2021/08/01 07:07:46;;;;;;;14.50;9.07;;;;;;;16.29;100.00;100635.84;4958429;28;20543;-74
2021/08/01 07:10:11;;;;;;;9.70;7.85;;;;;;;16.22;100.00;100634.94;4959221;28;20022;-74
2021/08/01 07:12:41;;;;;;;13.52;8.15;;;;;;;16.15;100.00;100632.25;4969223;28;20066;-74
2021/08/01 07:15:09;;;;;;;16.80;8.88;;;;;;;16.11;100.00;100629.13;4952531;28;20039;-75
2021/08/01 07:17:34;;;;;;;16.92;9.05;;;;;;;16.09;100.00;100636.44;4965913;28;20484;-74
2021/08/01 07:20:00;;;;;;;15.57;9.50;;;;;;;16.18;100.00;100642.47;4969855;28;20023;-74
2021/08/01 07:22:25;;;;;;;15.10;9.38;;;;;;;16.23;100.00;100636.59;4973640;28;20085;-73
2021/08/01 07:24:54;;;;;;;12.52;8.65;;;;;;;16.28;100.00;100632.38;4964271;28;20041;-74
2021/08/01 07:27:19;;;;;;;13.00;9.00;;;;;;;16.34;100.00;100636.94;4966019;28;20612;-75
2021/08/01 07:29:45;;;;;;;16.65;8.82;;;;;;;16.34;100.00;100625.53;4968836;28;20562;-74
2021/08/01 07:32:10;;;;;;;14.90;8.98;;;;;;;16.32;100.00;100630.19;4969088;28;20039;-74
2021/08/01 07:34:36;;;;;;;13.30;8.73;;;;;;;16.38;100.00;100629.44;4965870;28;20572;-73
2021/08/01 07:37:01;;;;;;;11.07;8.90;;;;;;;16.55;100.00;100636.13;4952059;28;20065;-74
2021/08/01 07:39:27;;;;;;;14.82;8.50;;;;;;;16.63;99.13;100629.91;4937300;28;20038;-72
2021/08/01 07:41:52;;;;;;;13.43;8.32;;;;;;;16.78;99.71;100619.22;4965090;28;20070;-72
2021/08/01 07:44:18;;;;;;;13.30;7.90;;;;;;;17.02;96.99;100626.00;4967724;28;20035;-75
2021/08/01 07:46:43;;;;;;;15.02;8.52;;;;;;;17.31;96.03;100632.13;4968118;28;20483;-76
2021/08/01 07:49:09;;;;;;;14.10;8.23;;;;;;;17.45;93.69;100631.19;4952009;28;20034;-74
2021/08/01 07:51:34;;;;;;;13.02;8.13;;;;;;;17.68;94.90;100638.06;4966645;28;20034;-73
2021/08/01 07:54:00;;;;;;;11.80;7.22;;;;;;;17.86;92.13;100633.09;4974269;28;20039;-74
2021/08/01 07:56:26;;;;;;;11.23;7.10;;;;;;;17.99;89.45;100634.97;4970932;28;20050;-73
2021/08/01 07:58:51;;;;;;;12.43;7.72;;;;;;;18.23;89.75;100627.50;4967909;28;20480;-74
2021/08/01 08:01:17;;;;;;;9.88;6.38;;;;;;;18.25;88.20;100628.94;4969272;28;20054;-74
2021/08/01 08:03:43;;;;;;;11.27;6.65;;;;;;;18.36;88.28;100634.69;4968207;28;20042;-74
2021/08/01 08:06:09;;;;;;;11.07;6.95;;;;;;;18.46;90.03;100627.97;4966227;28;20097;-72
2021/08/01 08:08:34;;;;;;;10.40;7.50;;;;;;;18.51;91.75;100631.88;4966604;28;20096;-74
2021/08/01 08:11:00;;;;;;;9.90;6.05;;;;;;;18.57;88.40;100623.91;4971020;28;20480;-74
2021/08/01 08:13:25;;;;;;;11.40;6.65;;;;;;;18.53;89.82;100621.84;4932314;29;20047;-73
2021/08/01 08:15:51;;;;;;;16.77;6.95;;;;;;;18.48;90.09;100625.94;4966113;28;20136;-73
2021/08/01 08:18:16;;;;;;;9.98;6.75;;;;;;;18.33;89.24;100627.94;4952480;28;20031;-72
2021/08/01 08:20:43;;;;;;;12.02;6.70;;;;;;;18.24;89.69;100622.00;4964744;28;20035;-74
2021/08/01 08:23:08;;;;;;;11.50;6.40;;;;;;;18.21;88.34;100622.38;4956929;28;20042;-75
2021/08/01 08:25:34;;;;;;;8.95;6.28;;;;;;;18.14;87.84;100618.91;4948043;28;20043;-74
2021/08/01 08:27:59;;;;;;;11.77;6.88;;;;;;;18.16;90.92;100624.84;4967486;28;20066;-73
2021/08/01 08:30:25;;;;;;;10.98;6.65;;;;;;;18.06;90.58;100617.25;4963903;28;20039;-73
2021/08/01 08:32:53;;;;;;;15.07;7.55;;;;;;;18.00;91.79;100622.53;4950138;28;20031;-74
2021/08/01 08:35:19;;;;;;;9.20;6.38;;;;;;;18.13;89.78;100627.06;4965323;28;20775;-73
2021/08/01 08:37:49;;;;;;;9.38;7.32;;;;;;;18.36;91.53;100622.22;4950624;28;20050;-74
2021/08/01 08:40:16;;;;;;;10.90;6.45;;;;;;;18.52;88.19;100625.53;4969354;28;20050;-74
2021/08/01 08:42:43;;;;;;;7.65;6.07;;;;;;;18.75;91.19;100628.63;4967826;28;20039;-73
2021/08/01 08:45:10;;;;;;;9.15;6.75;;;;;;;18.89;89.57;100620.69;4963697;28;20042;-74
2021/08/01 08:47:38;;;;;;;6.97;6.10;;;;;;;18.89;86.83;100620.69;4951456;28;20039;-74
2021/08/01 08:50:06;;;;;;;9.68;6.10;;;;;;;18.87;87.79;100628.88;4966610;28;20117;-74
2021/08/01 08:52:33;;;;;;;12.60;6.53;;;;;;;18.99;86.37;100623.78;4968102;28;20038;-74
2021/08/01 08:55:00;;;;;;;9.00;5.75;;;;;;;18.97;83.21;100628.47;4961725;28;20081;-74
2021/08/01 08:57:43;;;;;;;7.88;6.35;;;;;;;19.11;85.96;100630.09;4976244;28;20039;-74
2021/08/01 09:00:13;;;;;;;9.13;5.63;;;;;;;19.06;83.69;100630.72;4966752;28;20244;-74
2021/08/01 09:02:39;;;;;;;10.55;6.05;;;;;;;18.97;83.96;100621.31;4963231;28;20039;-74
2021/08/01 09:05:07;;;;;;;8.63;5.95;;;;;;;18.84;86.82;100634.59;4963725;28;20451;-74
2021/08/01 09:07:39;;;;;;;10.43;6.50;;;;;;;18.59;86.77;100631.66;4950524;28;20093;-74
2021/08/01 09:10:06;;;;;;;7.70;6.30;;;;;;;18.40;86.21;100630.59;4970042;28;20030;-73
2021/08/01 09:12:48;;;;;;;8.32;6.30;;;;;;;18.11;88.76;100623.81;4964399;28;20721;-74
2021/08/01 09:15:20;;;;;;;8.82;6.80;;;;;;;17.77;92.31;100628.94;4971971;28;20061;-74
2021/08/01 09:17:47;;;;;;;10.25;6.55;;;;;;;17.58;93.86;100637.59;4963076;28;20046;-74
2021/08/01 09:20:48;;;;;;;9.15;5.97;;;;;;;17.48;94.87;100630.00;4936006;28;20461;-74
2021/08/01 09:23:13;;;;;;;11.65;6.95;;;;;;;17.34;95.82;100631.72;4962573;28;20084;-73
2021/08/01 09:25:44;;;;;;;7.75;6.38;;;;;;;17.36;96.92;100623.59;4968727;28;20438;-73
2021/08/01 09:28:12;;;;;;;7.35;6.38;;;;;;;17.45;94.87;100625.88;4966077;28;20045;-72
2021/08/01 09:30:45;;;;;;;8.70;6.07;;;;;;;17.77;95.11;100623.63;4969357;28;20117;-73
2021/08/01 09:33:11;;;;;;;11.77;6.20;;;;;;;18.25;89.96;100620.16;4970889;28;20049;-73
2021/08/01 09:35:37;;;;;;;9.40;5.78;;;;;;;18.57;85.55;100615.94;4976399;28;20030;-72
2021/08/01 09:38:03;;;;;;;6.32;5.03;;;;;;;18.81;84.76;100619.06;4964659;28;20041;-72
2021/08/01 09:40:34;;;;;;;5.53;4.57;;;;;;;19.00;82.24;100622.72;4983505;28;20034;-73
2021/08/01 09:43:12;;;;;;;8.23;4.45;;;;;;;19.11;81.42;100618.66;4976414;28;20046;-72
2021/08/01 09:45:38;;;;;;;4.07;3.67;;;;;;;18.94;80.09;100616.41;4966994;28;20503;-73
2021/08/01 09:48:16;;;;;;;7.03;4.25;;;;;;;18.80;83.34;100620.06;4962496;28;20085;-72
2021/08/01 09:51:01;;;;;;;5.40;4.80;;;;;;;18.93;84.71;100624.56;4967250;28;20034;-72
2021/08/01 09:53:28;;;;;;;6.18;3.92;;;;;;;19.42;80.00;100607.34;4966409;28;20027;-72
2021/08/01 09:56:13;;;;;;;7.20;3.97;;;;;;;19.54;80.31;100615.50;4965970;28;20431;-74
2021/08/01 09:58:39;;;;;;;7.55;4.30;;;;;;;19.38;81.10;100611.44;4968381;28;20121;-74
2021/08/01 10:01:05;;;;;;;7.25;3.65;;;;;;;19.12;82.39;100602.50;4965344;28;20461;-73
2021/08/01 10:03:41;;;;;;;4.53;4.00;;;;;;;18.95;86.20;100606.56;4963417;28;20043;-73
2021/08/01 10:06:12;;;;;;;5.30;4.20;;;;;;;18.86;84.81;100600.66;4962767;28;20043;-73
2021/08/01 10:08:43;;;;;;;4.60;4.15;;;;;;;18.93;85.60;100590.88;4969859;28;20046;-73
2021/08/01 10:11:14;;;;;;;5.35;4.60;;;;;;;19.61;80.43;100584.41;4966186;28;20023;-73
2021/08/01 10:13:41;;;;;;;5.90;4.28;;;;;;;19.74;81.12;100592.34;4972667;28;20535;-74
2021/08/01 10:16:09;;;;;;;4.78;4.22;;;;;;;19.70;81.29;100582.28;4973659;28;20105;-74
2021/08/01 10:18:36;;;;;;;11.57;5.22;;;;;;;19.45;82.51;100591.78;4966887;28;20042;-75
2021/08/01 10:21:02;;;;;;;9.13;5.50;;;;;;;19.32;85.31;100589.16;4973725;28;20070;-74
2021/08/01 10:23:33;;;;;;;10.60;5.53;;;;;;;19.20;87.05;100582.84;4971080;28;20389;-72
2021/08/01 10:26:01;;;;;;;6.35;5.07;;;;;;;19.19;88.63;100589.19;4968101;28;20145;-74
2021/08/01 10:28:27;;;;;;;5.07;4.57;;;;;;;19.43;86.79;100585.03;4969150;28;20530;-71
2021/08/01 10:30:57;;;;;;;6.15;4.80;;;;;;;19.71;84.85;100574.09;4966684;28;20061;-74
2021/08/01 10:33:25;;;;;;;8.00;4.95;;;;;;;19.98;83.44;100568.69;4952884;28;20377;-74
2021/08/01 10:36:00;;;;;;;6.18;4.40;;;;;;;20.49;80.68;100575.75;4970110;28;20035;-73
2021/08/01 10:38:29;;;;;;;5.03;4.25;;;;;;;21.33;75.97;100578.13;4960682;28;20082;-73
2021/08/01 10:40:57;;;;;;;6.47;4.28;;;;;;;22.08;75.88;100579.72;4970521;28;20054;-73
2021/08/01 10:43:30;;;;;;;4.50;3.67;;;;;;;22.33;70.19;100579.59;4968778;28;20101;-73
2021/08/01 10:45:58;;;;;;;3.63;3.33;;;;;;;21.85;72.53;100573.25;4972667;28;20043;-74
2021/08/01 10:48:26;;;;;;;4.18;2.92;;;;;;;21.66;67.48;100580.47;4972031;28;20041;-72
2021/08/01 10:50:52;;;;;;;3.10;2.80;;;;;;;21.55;69.69;100576.69;4962348;28;20022;-73
2021/08/01 10:53:18;;;;;;;2.90;2.60;;;;;;;21.33;72.12;100575.47;4967444;28;20023;-73
2021/08/01 10:55:45;;;;;;;5.25;3.10;;;;;;;21.76;74.39;100566.56;4954335;28;20158;-73
2021/08/01 10:58:15;;;;;;;3.25;2.88;;;;;;;22.20;67.42;100572.53;4953214;28;20127;-72
2021/08/01 11:01:07;;;;;;;2.97;2.70;;;;;;;22.08;64.95;100574.38;4965804;28;20034;-72
2021/08/01 11:03:39;;;;;;;5.65;3.38;;;;;;;21.52;64.93;100563.78;4948786;28;20054;-72
2021/08/01 11:06:07;;;;;;;4.10;3.50;;;;;;;21.05;74.40;100574.09;4965488;28;20035;-75
2021/08/01 11:08:32;;;;;;;5.00;3.05;;;;;;;20.88;74.63;100552.50;4962740;28;20289;-72
2021/08/01 11:11:19;;;;;;;5.72;3.40;;;;;;;20.64;76.17;100561.34;4969455;28;20518;-73
2021/08/01 11:13:46;;;;;;;3.47;3.13;;;;;;;20.71;73.86;100557.56;4968676;28;20061;-73
2021/08/01 11:16:14;;;;;;;3.85;3.55;;;;;;;20.87;71.91;100547.38;4975992;28;20492;-72
2021/08/01 11:18:42;;;;;;;4.43;3.20;;;;;;;20.97;72.96;100548.53;4974374;28;20118;-73
2021/08/01 11:21:09;;;;;;;3.85;3.15;;;;;;;21.25;67.76;100549.91;4965915;28;20062;-73